sensor_id;sensor_type;location;lat;lon;timestamp;temperature;humidity
65038;DHT22;51605;47.040;15.294;2022-10-31T00:01:20;23.00;61.10
65038;DHT22;51605;47.040;15.294;2022-10-31T00:03:46;23.00;61.10
65038;DHT22;51605;47.040;15.294;2022-10-31T00:06:12;23.00;61.10
65038;DHT22;51605;47.040;15.294;2022-10-31T00:08:38;23.00;61.10
65038;DHT22;51605;47.040;15.294;2022-10-31T00:11:07;23.00;61.10
65038;DHT22;51605;47.040;15.294;2022-10-31T00:13:33;23.00;61.10
65038;DHT22;51605;47.040;15.294;2022-10-31T00:15:59;23.00;61.10
65038;DHT22;51605;47.040;15.294;2022-10-31T00:18:24;23.00;61.00
65038;DHT22;51605;47.040;15.294;2022-10-31T00:21:01;23.00;61.10
65038;DHT22;51605;47.040;15.294;2022-10-31T00:23:27;23.00;61.10
65038;DHT22;51605;47.040;15.294;2022-10-31T00:25:53;23.00;61.00
65038;DHT22;51605;47.040;15.294;2022-10-31T00:28:19;23.00;61.00
65038;DHT22;51605;47.040;15.294;2022-10-31T00:30:44;23.00;61.00
65038;DHT22;51605;47.040;15.294;2022-10-31T00:33:10;23.00;61.00
65038;DHT22;51605;47.040;15.294;2022-10-31T00:35:36;23.00;61.00
65038;DHT22;51605;47.040;15.294;2022-10-31T00:38:01;23.00;61.00
65038;DHT22;51605;47.040;15.294;2022-10-31T00:40:27;23.00;61.00
65038;DHT22;51605;47.040;15.294;2022-10-31T00:42:52;23.00;61.00
65038;DHT22;51605;47.040;15.294;2022-10-31T00:45:18;23.00;61.00
65038;DHT22;51605;47.040;15.294;2022-10-31T00:47:44;23.00;60.90
65038;DHT22;51605;47.040;15.294;2022-10-31T00:50:09;23.00;60.90
65038;DHT22;51605;47.040;15.294;2022-10-31T00:52:35;23.00;60.90
65038;DHT22;51605;47.040;15.294;2022-10-31T00:55:01;23.00;60.90
65038;DHT22;51605;47.040;15.294;2022-10-31T00:57:26;23.00;60.90
65038;DHT22;51605;47.040;15.294;2022-10-31T00:59:52;23.00;60.90
65038;DHT22;51605;47.040;15.294;2022-10-31T01:02:18;23.00;60.90
65038;DHT22;51605;47.040;15.294;2022-10-31T01:04:43;23.00;60.90
65038;DHT22;51605;47.040;15.294;2022-10-31T01:07:09;23.00;60.90
65038;DHT22;51605;47.040;15.294;2022-10-31T01:09:37;23.00;61.00
65038;DHT22;51605;47.040;15.294;2022-10-31T01:12:03;23.00;60.90
65038;DHT22;51605;47.040;15.294;2022-10-31T01:14:28;23.00;60.90
65038;DHT22;51605;47.040;15.294;2022-10-31T01:16:54;23.00;60.90
65038;DHT22;51605;47.040;15.294;2022-10-31T01:19:20;23.00;60.90
65038;DHT22;51605;47.040;15.294;2022-10-31T01:21:45;23.00;60.90
65038;DHT22;51605;47.040;15.294;2022-10-31T01:24:11;23.00;60.90
65038;DHT22;51605;47.040;15.294;2022-10-31T01:26:36;23.00;60.80
65038;DHT22;51605;47.040;15.294;2022-10-31T01:29:07;23.00;60.80
65038;DHT22;51605;47.040;15.294;2022-10-31T01:31:36;23.00;60.80
65038;DHT22;51605;47.040;15.294;2022-10-31T01:34:02;23.00;60.80
65038;DHT22;51605;47.040;15.294;2022-10-31T01:36:29;23.00;60.80
65038;DHT22;51605;47.040;15.294;2022-10-31T01:39:00;23.00;60.80
65038;DHT22;51605;47.040;15.294;2022-10-31T01:41:30;23.00;60.80
65038;DHT22;51605;47.040;15.294;2022-10-31T01:46:56;23.00;60.80
65038;DHT22;51605;47.040;15.294;2022-10-31T01:54:39;23.00;60.80
65038;DHT22;51605;47.040;15.294;2022-10-31T01:57:08;23.00;60.80
65038;DHT22;51605;47.040;15.294;2022-10-31T01:59:38;23.00;60.90
65038;DHT22;51605;47.040;15.294;2022-10-31T02:02:05;23.00;60.90
65038;DHT22;51605;47.040;15.294;2022-10-31T02:04:32;23.00;60.90
65038;DHT22;51605;47.040;15.294;2022-10-31T02:07:10;23.00;60.90
65038;DHT22;51605;47.040;15.294;2022-10-31T02:09:37;23.00;60.90
65038;DHT22;51605;47.040;15.294;2022-10-31T02:12:04;23.00;60.80
65038;DHT22;51605;47.040;15.294;2022-10-31T02:14:31;23.00;60.80
65038;DHT22;51605;47.040;15.294;2022-10-31T02:16:57;23.00;60.80
65038;DHT22;51605;47.040;15.294;2022-10-31T02:19:40;23.00;60.80
65038;DHT22;51605;47.040;15.294;2022-10-31T02:22:16;23.00;60.80
65038;DHT22;51605;47.040;15.294;2022-10-31T02:30:23;23.00;60.70
65038;DHT22;51605;47.040;15.294;2022-10-31T02:41:12;23.00;60.70
65038;DHT22;51605;47.040;15.294;2022-10-31T02:49:07;23.00;60.70
65038;DHT22;51605;47.040;15.294;2022-10-31T02:51:34;23.00;60.70
65038;DHT22;51605;47.040;15.294;2022-10-31T02:53:59;23.00;60.80
65038;DHT22;51605;47.040;15.294;2022-10-31T02:56:25;23.00;60.80
65038;DHT22;51605;47.040;15.294;2022-10-31T02:58:53;23.00;60.80
65038;DHT22;51605;47.040;15.294;2022-10-31T03:04:55;22.90;60.80
65038;DHT22;51605;47.040;15.294;2022-10-31T03:07:44;23.00;60.80
65038;DHT22;51605;47.040;15.294;2022-10-31T03:13:39;23.00;60.80
65038;DHT22;51605;47.040;15.294;2022-10-31T03:18:37;23.00;60.70
65038;DHT22;51605;47.040;15.294;2022-10-31T03:21:08;23.00;60.80
65038;DHT22;51605;47.040;15.294;2022-10-31T03:23:36;23.00;60.70
65038;DHT22;51605;47.040;15.294;2022-10-31T03:26:03;23.00;60.70
65038;DHT22;51605;47.040;15.294;2022-10-31T03:28:34;23.00;60.70
65038;DHT22;51605;47.040;15.294;2022-10-31T03:31:04;23.00;60.50
65038;DHT22;51605;47.040;15.294;2022-10-31T03:33:34;23.00;60.50
65038;DHT22;51605;47.040;15.294;2022-10-31T03:36:02;23.00;60.60
65038;DHT22;51605;47.040;15.294;2022-10-31T03:38:31;23.00;60.60
65038;DHT22;51605;47.040;15.294;2022-10-31T03:40:59;23.00;60.60
65038;DHT22;51605;47.040;15.294;2022-10-31T03:43:32;23.00;60.70
65038;DHT22;51605;47.040;15.294;2022-10-31T03:45:59;23.00;60.70
65038;DHT22;51605;47.040;15.294;2022-10-31T03:48:25;23.00;60.60
65038;DHT22;51605;47.040;15.294;2022-10-31T03:53:36;23.00;60.70
65038;DHT22;51605;47.040;15.294;2022-10-31T03:56:09;23.00;60.70
65038;DHT22;51605;47.040;15.294;2022-10-31T03:58:43;23.00;60.70
65038;DHT22;51605;47.040;15.294;2022-10-31T04:01:13;23.00;60.60
65038;DHT22;51605;47.040;15.294;2022-10-31T04:03:41;23.00;60.70
65038;DHT22;51605;47.040;15.294;2022-10-31T04:06:10;23.00;60.60
65038;DHT22;51605;47.040;15.294;2022-10-31T04:08:42;23.00;60.60
65038;DHT22;51605;47.040;15.294;2022-10-31T04:11:12;23.00;60.60
65038;DHT22;51605;47.040;15.294;2022-10-31T04:13:39;23.00;60.60
65038;DHT22;51605;47.040;15.294;2022-10-31T04:16:06;23.00;60.60
65038;DHT22;51605;47.040;15.294;2022-10-31T04:18:32;23.00;60.60
65038;DHT22;51605;47.040;15.294;2022-10-31T04:21:05;23.00;60.50
65038;DHT22;51605;47.040;15.294;2022-10-31T04:23:32;23.00;60.50
65038;DHT22;51605;47.040;15.294;2022-10-31T04:25:59;23.00;60.40
65038;DHT22;51605;47.040;15.294;2022-10-31T04:28:24;23.00;60.50
65038;DHT22;51605;47.040;15.294;2022-10-31T04:30:51;23.00;60.50
65038;DHT22;51605;47.040;15.294;2022-10-31T04:33:17;23.00;60.50
65038;DHT22;51605;47.040;15.294;2022-10-31T04:35:43;23.00;60.50
65038;DHT22;51605;47.040;15.294;2022-10-31T04:38:09;23.00;60.50
65038;DHT22;51605;47.040;15.294;2022-10-31T04:40:35;23.00;60.50
65038;DHT22;51605;47.040;15.294;2022-10-31T04:43:00;23.00;60.50
65038;DHT22;51605;47.040;15.294;2022-10-31T04:45:26;23.00;60.50
65038;DHT22;51605;47.040;15.294;2022-10-31T04:47:51;23.00;60.50
65038;DHT22;51605;47.040;15.294;2022-10-31T04:50:17;23.00;60.50
65038;DHT22;51605;47.040;15.294;2022-10-31T04:52:44;23.00;60.50
65038;DHT22;51605;47.040;15.294;2022-10-31T04:55:11;23.00;60.50
65038;DHT22;51605;47.040;15.294;2022-10-31T04:57:45;23.00;60.50
65038;DHT22;51605;47.040;15.294;2022-10-31T05:00:13;23.00;60.50
65038;DHT22;51605;47.040;15.294;2022-10-31T05:02:46;23.00;60.50
65038;DHT22;51605;47.040;15.294;2022-10-31T05:05:13;23.00;60.50
65038;DHT22;51605;47.040;15.294;2022-10-31T05:07:44;23.00;60.40
65038;DHT22;51605;47.040;15.294;2022-10-31T05:10:12;23.00;60.50
65038;DHT22;51605;47.040;15.294;2022-10-31T05:12:40;23.00;60.50
65038;DHT22;51605;47.040;15.294;2022-10-31T05:15:10;23.00;60.50
65038;DHT22;51605;47.040;15.294;2022-10-31T05:17:35;23.00;60.50
65038;DHT22;51605;47.040;15.294;2022-10-31T05:20:01;23.00;60.50
65038;DHT22;51605;47.040;15.294;2022-10-31T05:22:27;23.00;60.40
65038;DHT22;51605;47.040;15.294;2022-10-31T05:24:52;23.00;60.50
65038;DHT22;51605;47.040;15.294;2022-10-31T05:27:18;23.00;60.40
65038;DHT22;51605;47.040;15.294;2022-10-31T05:29:44;23.00;60.40
65038;DHT22;51605;47.040;15.294;2022-10-31T05:32:09;23.00;60.50
65038;DHT22;51605;47.040;15.294;2022-10-31T05:34:35;23.00;60.50
65038;DHT22;51605;47.040;15.294;2022-10-31T05:37:00;23.00;60.50
65038;DHT22;51605;47.040;15.294;2022-10-31T05:39:26;23.00;60.50
65038;DHT22;51605;47.040;15.294;2022-10-31T05:41:51;23.00;60.50
65038;DHT22;51605;47.040;15.294;2022-10-31T05:44:17;23.00;60.50
65038;DHT22;51605;47.040;15.294;2022-10-31T05:46:42;23.00;60.50
65038;DHT22;51605;47.040;15.294;2022-10-31T05:49:08;23.00;60.50
65038;DHT22;51605;47.040;15.294;2022-10-31T05:51:34;23.00;60.50
65038;DHT22;51605;47.040;15.294;2022-10-31T05:53:59;23.00;60.50
65038;DHT22;51605;47.040;15.294;2022-10-31T05:56:25;23.00;60.50
65038;DHT22;51605;47.040;15.294;2022-10-31T05:58:50;23.00;60.50
65038;DHT22;51605;47.040;15.294;2022-10-31T06:01:16;23.00;60.40
65038;DHT22;51605;47.040;15.294;2022-10-31T06:03:42;23.00;60.50
65038;DHT22;51605;47.040;15.294;2022-10-31T06:06:07;23.00;60.50
65038;DHT22;51605;47.040;15.294;2022-10-31T06:08:33;23.00;60.50
65038;DHT22;51605;47.040;15.294;2022-10-31T06:10:58;23.00;60.50
65038;DHT22;51605;47.040;15.294;2022-10-31T06:13:24;23.00;60.50
65038;DHT22;51605;47.040;15.294;2022-10-31T06:15:50;22.90;60.50
65038;DHT22;51605;47.040;15.294;2022-10-31T06:18:15;22.90;60.60
65038;DHT22;51605;47.040;15.294;2022-10-31T06:20:41;23.00;60.70
65038;DHT22;51605;47.040;15.294;2022-10-31T06:23:06;22.90;60.70
65038;DHT22;51605;47.040;15.294;2022-10-31T06:25:33;22.90;60.70
65038;DHT22;51605;47.040;15.294;2022-10-31T06:27:59;22.90;60.80
65038;DHT22;51605;47.040;15.294;2022-10-31T06:30:24;22.90;60.70
65038;DHT22;51605;47.040;15.294;2022-10-31T06:32:50;22.90;60.70
65038;DHT22;51605;47.040;15.294;2022-10-31T06:35:16;22.90;60.60
65038;DHT22;51605;47.040;15.294;2022-10-31T06:37:42;22.90;60.70
65038;DHT22;51605;47.040;15.294;2022-10-31T06:40:08;22.90;60.70
65038;DHT22;51605;47.040;15.294;2022-10-31T06:42:34;22.90;60.70
65038;DHT22;51605;47.040;15.294;2022-10-31T06:44:59;22.90;60.70
65038;DHT22;51605;47.040;15.294;2022-10-31T06:47:25;22.90;60.70
65038;DHT22;51605;47.040;15.294;2022-10-31T06:49:50;22.90;60.70
65038;DHT22;51605;47.040;15.294;2022-10-31T06:52:16;22.90;60.70
65038;DHT22;51605;47.040;15.294;2022-10-31T06:54:42;22.90;60.70
65038;DHT22;51605;47.040;15.294;2022-10-31T06:57:07;22.90;60.70
65038;DHT22;51605;47.040;15.294;2022-10-31T06:59:33;22.90;60.70
65038;DHT22;51605;47.040;15.294;2022-10-31T07:01:59;22.90;60.70
65038;DHT22;51605;47.040;15.294;2022-10-31T07:04:24;22.90;60.70
65038;DHT22;51605;47.040;15.294;2022-10-31T07:06:52;22.90;60.70
65038;DHT22;51605;47.040;15.294;2022-10-31T07:09:18;22.90;60.60
65038;DHT22;51605;47.040;15.294;2022-10-31T07:11:44;22.90;60.60
65038;DHT22;51605;47.040;15.294;2022-10-31T07:14:10;23.00;60.60
65038;DHT22;51605;47.040;15.294;2022-10-31T07:16:35;23.00;60.50
65038;DHT22;51605;47.040;15.294;2022-10-31T07:19:01;23.00;60.50
65038;DHT22;51605;47.040;15.294;2022-10-31T07:21:26;23.00;60.50
65038;DHT22;51605;47.040;15.294;2022-10-31T07:23:52;22.90;60.40
65038;DHT22;51605;47.040;15.294;2022-10-31T07:26:18;22.90;60.30
65038;DHT22;51605;47.040;15.294;2022-10-31T07:28:45;23.00;60.40
65038;DHT22;51605;47.040;15.294;2022-10-31T07:31:11;22.90;60.30
65038;DHT22;51605;47.040;15.294;2022-10-31T07:33:36;22.90;60.30
65038;DHT22;51605;47.040;15.294;2022-10-31T07:36:02;22.90;60.30
65038;DHT22;51605;47.040;15.294;2022-10-31T07:38:28;22.90;60.20
65038;DHT22;51605;47.040;15.294;2022-10-31T07:40:53;23.00;60.30
65038;DHT22;51605;47.040;15.294;2022-10-31T07:43:19;23.00;60.30
65038;DHT22;51605;47.040;15.294;2022-10-31T07:45:50;22.90;60.20
65038;DHT22;51605;47.040;15.294;2022-10-31T07:48:16;22.90;60.30
65038;DHT22;51605;47.040;15.294;2022-10-31T07:50:42;23.00;60.20
65038;DHT22;51605;47.040;15.294;2022-10-31T07:53:09;23.00;60.40
65038;DHT22;51605;47.040;15.294;2022-10-31T07:55:36;23.00;60.30
65038;DHT22;51605;47.040;15.294;2022-10-31T07:58:15;22.90;60.30
65038;DHT22;51605;47.040;15.294;2022-10-31T08:00:43;22.90;60.30
65038;DHT22;51605;47.040;15.294;2022-10-31T08:03:11;23.00;60.30
65038;DHT22;51605;47.040;15.294;2022-10-31T08:05:38;22.90;60.40
65038;DHT22;51605;47.040;15.294;2022-10-31T08:08:05;23.00;60.60
65038;DHT22;51605;47.040;15.294;2022-10-31T08:10:32;22.90;60.60
65038;DHT22;51605;47.040;15.294;2022-10-31T08:13:04;22.90;60.60
65038;DHT22;51605;47.040;15.294;2022-10-31T08:15:31;22.90;60.60
65038;DHT22;51605;47.040;15.294;2022-10-31T08:17:57;22.90;60.60
65038;DHT22;51605;47.040;15.294;2022-10-31T08:20:23;22.90;60.60
65038;DHT22;51605;47.040;15.294;2022-10-31T08:22:56;22.90;60.70
65038;DHT22;51605;47.040;15.294;2022-10-31T08:25:23;22.90;60.60
65038;DHT22;51605;47.040;15.294;2022-10-31T08:27:53;22.90;60.60
65038;DHT22;51605;47.040;15.294;2022-10-31T08:30:20;22.90;60.60
65038;DHT22;51605;47.040;15.294;2022-10-31T08:32:46;22.90;60.60
65038;DHT22;51605;47.040;15.294;2022-10-31T08:35:12;22.90;60.50
65038;DHT22;51605;47.040;15.294;2022-10-31T08:37:37;23.00;60.40
65038;DHT22;51605;47.040;15.294;2022-10-31T08:40:04;23.00;60.20
65038;DHT22;51605;47.040;15.294;2022-10-31T08:42:30;23.00;60.20
65038;DHT22;51605;47.040;15.294;2022-10-31T08:44:56;23.00;60.30
65038;DHT22;51605;47.040;15.294;2022-10-31T08:47:22;23.00;60.40
65038;DHT22;51605;47.040;15.294;2022-10-31T08:49:47;22.90;60.30
65038;DHT22;51605;47.040;15.294;2022-10-31T08:52:13;22.90;60.30
65038;DHT22;51605;47.040;15.294;2022-10-31T08:54:40;23.00;60.30
65038;DHT22;51605;47.040;15.294;2022-10-31T08:57:05;22.90;60.10
65038;DHT22;51605;47.040;15.294;2022-10-31T08:59:31;23.00;60.10
65038;DHT22;51605;47.040;15.294;2022-10-31T09:01:56;23.00;60.20
65038;DHT22;51605;47.040;15.294;2022-10-31T09:04:22;22.90;60.20
65038;DHT22;51605;47.040;15.294;2022-10-31T09:06:48;22.90;60.10
65038;DHT22;51605;47.040;15.294;2022-10-31T09:09:13;23.00;60.20
65038;DHT22;51605;47.040;15.294;2022-10-31T09:11:39;22.90;60.10
65038;DHT22;51605;47.040;15.294;2022-10-31T09:14:04;23.00;60.20
65038;DHT22;51605;47.040;15.294;2022-10-31T09:16:30;22.90;60.10
65038;DHT22;51605;47.040;15.294;2022-10-31T09:18:56;22.90;60.20
65038;DHT22;51605;47.040;15.294;2022-10-31T09:21:21;22.90;60.10
65038;DHT22;51605;47.040;15.294;2022-10-31T09:23:47;22.90;60.20
65038;DHT22;51605;47.040;15.294;2022-10-31T09:26:12;22.90;60.10
65038;DHT22;51605;47.040;15.294;2022-10-31T09:28:38;22.90;60.10
65038;DHT22;51605;47.040;15.294;2022-10-31T09:31:03;22.90;60.00
65038;DHT22;51605;47.040;15.294;2022-10-31T09:33:29;22.90;60.00
65038;DHT22;51605;47.040;15.294;2022-10-31T09:35:57;22.90;60.10
65038;DHT22;51605;47.040;15.294;2022-10-31T09:38:23;22.90;60.10
65038;DHT22;51605;47.040;15.294;2022-10-31T09:41:12;22.90;60.10
65038;DHT22;51605;47.040;15.294;2022-10-31T09:46:44;22.90;60.20
65038;DHT22;51605;47.040;15.294;2022-10-31T09:52:03;22.90;60.20
65038;DHT22;51605;47.040;15.294;2022-10-31T09:54:55;22.90;60.20
65038;DHT22;51605;47.040;15.294;2022-10-31T09:57:28;22.90;60.30
65038;DHT22;51605;47.040;15.294;2022-10-31T09:59:55;22.90;60.20
65038;DHT22;51605;47.040;15.294;2022-10-31T10:02:37;22.90;60.20
65038;DHT22;51605;47.040;15.294;2022-10-31T10:05:09;22.90;60.30
65038;DHT22;51605;47.040;15.294;2022-10-31T10:10:27;22.90;60.20
65038;DHT22;51605;47.040;15.294;2022-10-31T10:13:08;22.90;60.30
65038;DHT22;51605;47.040;15.294;2022-10-31T10:24:23;22.90;60.30
65038;DHT22;51605;47.040;15.294;2022-10-31T10:27:05;22.90;60.30
65038;DHT22;51605;47.040;15.294;2022-10-31T10:29:39;22.90;60.30
65038;DHT22;51605;47.040;15.294;2022-10-31T10:32:20;22.90;60.30
65038;DHT22;51605;47.040;15.294;2022-10-31T10:34:51;22.90;60.30
65038;DHT22;51605;47.040;15.294;2022-10-31T10:39:46;22.90;60.30
65038;DHT22;51605;47.040;15.294;2022-10-31T10:42:14;22.90;60.30
65038;DHT22;51605;47.040;15.294;2022-10-31T10:45:00;22.90;60.30
65038;DHT22;51605;47.040;15.294;2022-10-31T10:48:01;22.90;60.30
65038;DHT22;51605;47.040;15.294;2022-10-31T10:50:39;22.90;60.30
65038;DHT22;51605;47.040;15.294;2022-10-31T10:53:09;22.90;60.30
65038;DHT22;51605;47.040;15.294;2022-10-31T10:55:58;22.90;60.30
65038;DHT22;51605;47.040;15.294;2022-10-31T10:58:25;22.90;60.40
65038;DHT22;51605;47.040;15.294;2022-10-31T11:00:53;22.90;60.40
65038;DHT22;51605;47.040;15.294;2022-10-31T11:03:20;22.90;60.30
65038;DHT22;51605;47.040;15.294;2022-10-31T11:05:55;22.90;60.30
65038;DHT22;51605;47.040;15.294;2022-10-31T11:08:35;22.90;60.30
65038;DHT22;51605;47.040;15.294;2022-10-31T11:13:44;22.90;60.30
65038;DHT22;51605;47.040;15.294;2022-10-31T11:16:27;22.90;60.30
65038;DHT22;51605;47.040;15.294;2022-10-31T11:18:54;22.90;60.30
65038;DHT22;51605;47.040;15.294;2022-10-31T11:21:30;22.90;60.20
65038;DHT22;51605;47.040;15.294;2022-10-31T11:26:38;22.90;60.30
65038;DHT22;51605;47.040;15.294;2022-10-31T11:29:05;22.90;60.30
65038;DHT22;51605;47.040;15.294;2022-10-31T11:31:32;22.90;60.30
65038;DHT22;51605;47.040;15.294;2022-10-31T11:34:04;22.90;60.30
65038;DHT22;51605;47.040;15.294;2022-10-31T11:36:36;22.90;60.30
65038;DHT22;51605;47.040;15.294;2022-10-31T11:39:05;22.90;60.20
65038;DHT22;51605;47.040;15.294;2022-10-31T11:41:37;22.90;60.20
65038;DHT22;51605;47.040;15.294;2022-10-31T11:46:41;22.90;60.30
65038;DHT22;51605;47.040;15.294;2022-10-31T11:49:16;22.90;60.30
65038;DHT22;51605;47.040;15.294;2022-10-31T11:51:42;22.90;60.30
65038;DHT22;51605;47.040;15.294;2022-10-31T11:54:26;22.90;60.30
65038;DHT22;51605;47.040;15.294;2022-10-31T11:56:53;22.90;60.30
65038;DHT22;51605;47.040;15.294;2022-10-31T11:59:29;22.90;60.20
65038;DHT22;51605;47.040;15.294;2022-10-31T12:01:56;22.90;60.30
65038;DHT22;51605;47.040;15.294;2022-10-31T12:04:44;22.90;60.30
65038;DHT22;51605;47.040;15.294;2022-10-31T12:07:12;22.90;60.30
65038;DHT22;51605;47.040;15.294;2022-10-31T12:09:38;22.90;60.20
65038;DHT22;51605;47.040;15.294;2022-10-31T12:31:01;22.90;60.40
65038;DHT22;51605;47.040;15.294;2022-10-31T12:39:01;22.90;60.40
65038;DHT22;51605;47.040;15.294;2022-10-31T12:44:33;22.90;60.40
65038;DHT22;51605;47.040;15.294;2022-10-31T12:49:46;22.90;60.30
65038;DHT22;51605;47.040;15.294;2022-10-31T12:57:38;22.90;60.30
65038;DHT22;51605;47.040;15.294;2022-10-31T13:00:25;22.90;60.30
65038;DHT22;51605;47.040;15.294;2022-10-31T13:02:53;22.80;60.30
65038;DHT22;51605;47.040;15.294;2022-10-31T13:05:30;22.90;60.40
65038;DHT22;51605;47.040;15.294;2022-10-31T13:08:11;22.90;60.40
65038;DHT22;51605;47.040;15.294;2022-10-31T13:10:51;22.80;60.30
65038;DHT22;51605;47.040;15.294;2022-10-31T13:13:19;22.90;60.40
65038;DHT22;51605;47.040;15.294;2022-10-31T13:16:03;22.90;60.40
65038;DHT22;51605;47.040;15.294;2022-10-31T13:22:06;22.90;60.40
65038;DHT22;51605;47.040;15.294;2022-10-31T13:25:03;22.90;60.30
65038;DHT22;51605;47.040;15.294;2022-10-31T13:30:22;22.90;60.30
65038;DHT22;51605;47.040;15.294;2022-10-31T13:35:29;22.90;60.40
65038;DHT22;51605;47.040;15.294;2022-10-31T13:41:09;22.80;60.30
65038;DHT22;51605;47.040;15.294;2022-10-31T13:46:41;22.90;60.30
65038;DHT22;51605;47.040;15.294;2022-10-31T13:54:40;22.90;60.30
65038;DHT22;51605;47.040;15.294;2022-10-31T13:57:30;22.90;60.30
65038;DHT22;51605;47.040;15.294;2022-10-31T13:59:59;22.80;60.30
65038;DHT22;51605;47.040;15.294;2022-10-31T14:02:31;22.80;60.30
65038;DHT22;51605;47.040;15.294;2022-10-31T14:05:04;22.90;60.40
65038;DHT22;51605;47.040;15.294;2022-10-31T14:07:31;22.90;60.40
65038;DHT22;51605;47.040;15.294;2022-10-31T14:10:04;22.90;60.30
65038;DHT22;51605;47.040;15.294;2022-10-31T14:12:37;22.90;60.30
65038;DHT22;51605;47.040;15.294;2022-10-31T14:15:16;22.90;60.30
65038;DHT22;51605;47.040;15.294;2022-10-31T14:17:57;22.90;60.30
65038;DHT22;51605;47.040;15.294;2022-10-31T14:20:37;22.90;60.30
65038;DHT22;51605;47.040;15.294;2022-10-31T14:26:06;22.90;60.30
65038;DHT22;51605;47.040;15.294;2022-10-31T14:28:34;22.90;60.30
65038;DHT22;51605;47.040;15.294;2022-10-31T14:31:01;22.90;60.30
65038;DHT22;51605;47.040;15.294;2022-10-31T14:33:30;22.90;60.40
65038;DHT22;51605;47.040;15.294;2022-10-31T14:52:48;22.90;60.40
65038;DHT22;51605;47.040;15.294;2022-10-31T14:55:15;22.90;60.30
65038;DHT22;51605;47.040;15.294;2022-10-31T14:57:50;22.90;60.40
65038;DHT22;51605;47.040;15.294;2022-10-31T15:00:19;22.90;60.40
65038;DHT22;51605;47.040;15.294;2022-10-31T15:03:11;22.90;60.40
65038;DHT22;51605;47.040;15.294;2022-10-31T15:05:46;22.80;60.30
65038;DHT22;51605;47.040;15.294;2022-10-31T15:08:26;22.80;60.30
65038;DHT22;51605;47.040;15.294;2022-10-31T15:10:52;22.80;60.30
65038;DHT22;51605;47.040;15.294;2022-10-31T15:13:20;22.90;60.30
65038;DHT22;51605;47.040;15.294;2022-10-31T15:15:54;22.80;60.30
65038;DHT22;51605;47.040;15.294;2022-10-31T15:18:26;22.80;60.30
65038;DHT22;51605;47.040;15.294;2022-10-31T15:20:54;22.80;60.30
65038;DHT22;51605;47.040;15.294;2022-10-31T15:23:26;22.90;60.40
65038;DHT22;51605;47.040;15.294;2022-10-31T15:26:04;22.80;60.30
65038;DHT22;51605;47.040;15.294;2022-10-31T15:28:30;22.80;60.30
65038;DHT22;51605;47.040;15.294;2022-10-31T15:30:58;22.80;60.20
65038;DHT22;51605;47.040;15.294;2022-10-31T15:33:32;22.90;60.20
65038;DHT22;51605;47.040;15.294;2022-10-31T15:36:04;22.90;60.30
65038;DHT22;51605;47.040;15.294;2022-10-31T15:38:30;22.90;60.20
65038;DHT22;51605;47.040;15.294;2022-10-31T15:43:47;22.90;60.20
65038;DHT22;51605;47.040;15.294;2022-10-31T15:46:13;22.90;60.20
65038;DHT22;51605;47.040;15.294;2022-10-31T15:48:44;22.90;60.10
65038;DHT22;51605;47.040;15.294;2022-10-31T15:51:11;22.80;60.00
65038;DHT22;51605;47.040;15.294;2022-10-31T15:53:43;22.90;60.10
65038;DHT22;51605;47.040;15.294;2022-10-31T15:56:13;22.90;60.20
65038;DHT22;51605;47.040;15.294;2022-10-31T15:58:49;22.90;60.20
65038;DHT22;51605;47.040;15.294;2022-10-31T16:04:02;22.80;60.20
65038;DHT22;51605;47.040;15.294;2022-10-31T16:06:29;22.80;60.20
65038;DHT22;51605;47.040;15.294;2022-10-31T16:08:54;22.80;60.20
65038;DHT22;51605;47.040;15.294;2022-10-31T16:11:24;22.90;60.20
65038;DHT22;51605;47.040;15.294;2022-10-31T16:14:15;22.80;60.20
65038;DHT22;51605;47.040;15.294;2022-10-31T16:16:54;22.90;60.30
65038;DHT22;51605;47.040;15.294;2022-10-31T16:19:30;22.90;60.20
65038;DHT22;51605;47.040;15.294;2022-10-31T16:22:11;22.90;60.10
65038;DHT22;51605;47.040;15.294;2022-10-31T16:27:32;22.90;60.20
65038;DHT22;51605;47.040;15.294;2022-10-31T16:30:00;22.90;60.10
65038;DHT22;51605;47.040;15.294;2022-10-31T16:32:34;22.90;60.10
65038;DHT22;51605;47.040;15.294;2022-10-31T16:37:39;22.80;60.10
65038;DHT22;51605;47.040;15.294;2022-10-31T16:40:05;22.80;60.10
65038;DHT22;51605;47.040;15.294;2022-10-31T16:42:30;22.90;60.20
65038;DHT22;51605;47.040;15.294;2022-10-31T16:44:56;22.80;60.10
65038;DHT22;51605;47.040;15.294;2022-10-31T16:47:22;22.80;60.20
65038;DHT22;51605;47.040;15.294;2022-10-31T16:49:48;22.80;60.20
65038;DHT22;51605;47.040;15.294;2022-10-31T16:52:16;22.80;60.20
65038;DHT22;51605;47.040;15.294;2022-10-31T16:54:41;22.80;60.20
65038;DHT22;51605;47.040;15.294;2022-10-31T16:57:15;22.80;60.20
65038;DHT22;51605;47.040;15.294;2022-10-31T16:59:43;22.80;60.20
65038;DHT22;51605;47.040;15.294;2022-10-31T17:02:13;22.80;60.20
65038;DHT22;51605;47.040;15.294;2022-10-31T17:04:39;22.80;60.20
65038;DHT22;51605;47.040;15.294;2022-10-31T17:07:05;22.90;60.20
65038;DHT22;51605;47.040;15.294;2022-10-31T17:09:30;22.80;60.20
65038;DHT22;51605;47.040;15.294;2022-10-31T17:11:56;22.90;60.20
65038;DHT22;51605;47.040;15.294;2022-10-31T17:14:22;22.90;60.30
65038;DHT22;51605;47.040;15.294;2022-10-31T17:16:48;22.80;60.20
65038;DHT22;51605;47.040;15.294;2022-10-31T17:19:14;22.80;60.20
65038;DHT22;51605;47.040;15.294;2022-10-31T17:21:40;22.90;60.20
65038;DHT22;51605;47.040;15.294;2022-10-31T17:24:08;22.90;60.20
65038;DHT22;51605;47.040;15.294;2022-10-31T17:26:34;22.80;60.20
65038;DHT22;51605;47.040;15.294;2022-10-31T17:29:00;22.90;60.20
65038;DHT22;51605;47.040;15.294;2022-10-31T17:31:29;22.90;60.20
65038;DHT22;51605;47.040;15.294;2022-10-31T17:33:56;22.90;60.20
65038;DHT22;51605;47.040;15.294;2022-10-31T17:36:22;22.90;60.20
65038;DHT22;51605;47.040;15.294;2022-10-31T17:38:48;22.90;60.10
65038;DHT22;51605;47.040;15.294;2022-10-31T17:41:13;22.90;60.10
65038;DHT22;51605;47.040;15.294;2022-10-31T17:43:39;22.90;60.10
65038;DHT22;51605;47.040;15.294;2022-10-31T17:46:05;22.90;60.10
65038;DHT22;51605;47.040;15.294;2022-10-31T17:48:33;22.90;60.20
65038;DHT22;51605;47.040;15.294;2022-10-31T17:51:00;22.90;60.20
65038;DHT22;51605;47.040;15.294;2022-10-31T17:53:29;22.90;60.20
65038;DHT22;51605;47.040;15.294;2022-10-31T17:56:06;22.90;60.20
65038;DHT22;51605;47.040;15.294;2022-10-31T17:58:33;22.90;60.10
65038;DHT22;51605;47.040;15.294;2022-10-31T18:01:00;22.90;60.10